ポートルイス の空港の天気 - METARとTAF

サー・シウサガル・ラングラーム国際空港 ( FIMP / MRU ) - モーリシャス ポートルイス
飛行場実況気象(Metar)
観測時間04/21 21:00 MUT (04/21 17:00 UTC)
風向・風速東 6m/s
視程10km以上
天気現象
全天の4割程度の雲 雲底高度 490m
全天の8割程度の雲 雲底高度 1520m
気温27℃
湿度84%
気圧1014hPa
METARFIMP 211700Z 10012KT 9999 SCT016 BKN050 27/24 Q1014
過去の天気等 Google飛行場航空写真 Wunderground天気予報

過去48時間のMETAR

飛行場予報(TAF)
発表時間: 4/21 15:20 MUT (4/21 11:20 UTC)
予報対象時間: 21日16時 MUT ~ 22日22時 MUT
風向・風速東 6m/s 瞬間風速 13m/s
視程10km以上
全天の4割程度の雲 雲底高度 490m
21日22時 MUT ~ 22日10時 MUT に 確率 30% で一時的に
視程5000m
天気現象しゅう雨
少しの雲 雲底高度 240m
全天の8割程度の雲 雲底高度 430m
TAF FIMP 211120Z 2112/2218 10012G25KT 9999 SCT016
TEMPO 7000 -SHRA FEW010 BKN015 BKN050
PROB30 TEMPO 2118/2206 5000 SHRA FEW008 BKN014